Time;durP1;ratioP1;P1;durP2;ratioP2;P2;SDS_P1;SDS_P2;PMS_P1;PMS_P2;Temp;Humidity;BMP_temperature;BMP_pressure;BME280_temperature;BME280_humidity;BME280_pressure;Samples;Min_cycle;Max_cycle;Signal;HPM_P1;HPM_P2
2023/01/08 00:01:40;;;;;;;4.00;2.00;;;;;;;;;;4970978;28;20277;-67
2023/01/08 00:04:05;;;;;;;3.47;2.00;;;;;;;;;;4980142;28;20191;-68
2023/01/08 00:06:31;;;;;;;3.55;2.03;;;;;;;;;;4979422;28;20277;-68
2023/01/08 00:08:56;;;;;;;2.95;2.22;;;;;;;;;;4990376;28;20187;-68
2023/01/08 00:11:22;;;;;;;5.10;2.60;;;;;;;;;;4995704;28;20206;-68
2023/01/08 00:13:47;;;;;;;3.55;1.80;;;;;;;;;;4987894;28;20219;-68
2023/01/08 00:16:15;;;;;;;2.17;1.90;;;;;;;;;;4988541;28;20278;-68
2023/01/08 00:18:41;;;;;;;4.90;2.50;;;;;;;;;;4992003;28;20206;-68
2023/01/08 00:21:07;;;;;;;3.22;2.17;;;;;;;;;;4986684;28;20211;-68
2023/01/08 00:23:34;;;;;;;2.33;2.13;;;;;;;;;;4995305;28;20237;-67
2023/01/08 00:26:01;;;;;;;2.35;2.00;;;;;;;;;;4988172;28;20187;-68
2023/01/08 00:28:27;;;;;;;6.22;2.47;;;;;;;;;;4986551;28;20404;-68
2023/01/08 00:30:52;;;;;;;3.97;2.20;;;;;;;;;;4980927;28;20724;-68
2023/01/08 00:33:18;;;;;;;3.10;2.00;;;;;;;;;;4995605;28;20319;-67
2023/01/08 00:35:43;;;;;;;5.03;2.20;;;;;;;;;;4995788;28;20222;-68
2023/01/08 00:38:09;;;;;;;2.67;2.35;;;;;;;;;;4996085;28;20187;-68
2023/01/08 00:40:35;;;;;;;3.42;2.28;;;;;;;;;;4996455;28;20243;-68
2023/01/08 00:43:00;;;;;;;2.67;2.47;;;;;;;;;;4995852;28;20274;-68
2023/01/08 00:45:26;;;;;;;3.22;2.28;;;;;;;;;;4992944;28;20188;-68
2023/01/08 00:47:51;;;;;;;4.05;2.17;;;;;;;;;;4988610;28;20188;-67
2023/01/08 00:50:18;;;;;;;3.13;2.40;;;;;;;;;;4984795;28;20523;-68
2023/01/08 00:52:43;;;;;;;3.10;2.40;;;;;;;;;;4988138;28;20198;-68
2023/01/08 00:55:09;;;;;;;4.88;2.17;;;;;;;;;;4987674;28;20662;-67
2023/01/08 00:57:36;;;;;;;3.75;2.10;;;;;;;;;;4984018;28;20196;-68
2023/01/08 01:00:04;;;;;;;3.42;2.00;;;;;;;;;;4979066;28;20220;-68
2023/01/08 01:02:29;;;;;;;2.53;1.73;;;;;;;;;;4980445;28;20227;-68
2023/01/08 01:04:55;;;;;;;4.25;2.70;;;;;;;;;;4989819;28;20214;-68
2023/01/08 01:07:20;;;;;;;4.40;2.42;;;;;;;;;;4980051;28;20197;-68
2023/01/08 01:09:45;;;;;;;3.55;2.05;;;;;;;;;;4983966;28;20195;-68
2023/01/08 01:12:11;;;;;;;3.42;2.05;;;;;;;;;;4983506;28;20192;-68
2023/01/08 01:14:37;;;;;;;3.92;2.00;;;;;;;;;;4991071;28;20537;-68
2023/01/08 01:17:03;;;;;;;3.30;2.40;;;;;;;;;;4993897;28;20274;-68
2023/01/08 01:19:28;;;;;;;2.65;2.08;;;;;;;;;;4996665;28;20205;-68
2023/01/08 01:21:54;;;;;;;3.00;1.98;;;;;;;;;;4988581;28;20585;-68
2023/01/08 01:24:22;;;;;;;4.00;1.92;;;;;;;;;;4984371;28;20625;-68
2023/01/08 01:26:48;;;;;;;3.10;2.13;;;;;;;;;;4989320;28;20234;-68
2023/01/08 01:29:13;;;;;;;3.85;2.47;;;;;;;;;;4996026;28;20195;-68
2023/01/08 01:31:39;;;;;;;2.95;2.20;;;;;;;;;;4996629;28;20179;-68
2023/01/08 01:34:04;;;;;;;2.78;2.03;;;;;;;;;;4995403;28;20226;-67
2023/01/08 01:36:29;;;;;;;5.07;2.17;;;;;;;;;;5000116;28;20495;-67
2023/01/08 01:38:56;;;;;;;2.72;2.05;;;;;;;;;;4997419;28;20293;-68
2023/01/08 01:41:32;;;;;;;3.03;2.25;;;;;;;;;;4996548;28;20662;-68
2023/01/08 01:43:59;;;;;;;2.40;2.00;;;;;;;;;;4990905;28;20761;-68
2023/01/08 01:46:39;;;;;;;5.63;2.67;;;;;;;;;;4990954;28;20306;-68
2023/01/08 01:49:12;;;;;;;4.05;2.50;;;;;;;;;;5001933;28;20573;-67
2023/01/08 01:51:42;;;;;;;4.75;2.25;;;;;;;;;;4996247;28;20175;-68
2023/01/08 01:54:10;;;;;;;4.22;2.40;;;;;;;;;;4999034;28;20187;-67
2023/01/08 01:56:36;;;;;;;5.53;2.38;;;;;;;;;;4990128;28;20188;-67
2023/01/08 01:59:01;;;;;;;3.38;2.45;;;;;;;;;;4995773;28;20199;-67
2023/01/08 02:01:29;;;;;;;4.05;2.53;;;;;;;;;;4983003;28;20647;-67
2023/01/08 02:03:55;;;;;;;5.78;2.47;;;;;;;;;;4981862;28;20214;-68
2023/01/08 02:06:37;;;;;;;3.00;2.25;;;;;;;;;;4989676;28;20595;-68
2023/01/08 02:09:42;;;;;;;3.67;2.65;;;;;;;;;;4986944;28;20195;-67
2023/01/08 02:12:15;;;;;;;3.38;2.30;;;;;;;;;;4986680;28;20207;-65
2023/01/08 02:15:00;;;;;;;3.58;2.53;;;;;;;;;;4990203;28;20492;-66
2023/01/08 02:17:44;;;;;;;7.25;2.63;;;;;;;;;;4985386;28;20647;-66
2023/01/08 02:20:19;;;;;;;3.97;2.70;;;;;;;;;;4981029;28;20242;-66
2023/01/08 02:23:02;;;;;;;6.03;2.53;;;;;;;;;;4994812;28;20308;-66
2023/01/08 02:25:52;;;;;;;9.20;2.75;;;;;;;;;;4995772;28;20235;-67
2023/01/08 02:28:18;;;;;;;4.00;2.25;;;;;;;;;;4991391;28;20187;-66
2023/01/08 02:30:45;;;;;;;5.53;2.55;;;;;;;;;;4993149;28;20191;-66
2023/01/08 02:33:11;;;;;;;3.20;2.30;;;;;;;;;;4988637;28;20200;-66
2023/01/08 02:35:44;;;;;;;3.78;2.40;;;;;;;;;;4999259;28;20278;-67
2023/01/08 02:38:13;;;;;;;3.90;2.42;;;;;;;;;;4980510;28;20257;-66
2023/01/08 02:40:55;;;;;;;3.35;2.17;;;;;;;;;;4989203;28;20693;-66
2023/01/08 02:43:28;;;;;;;3.80;2.45;;;;;;;;;;4983830;28;20253;-66
2023/01/08 02:46:00;;;;;;;2.45;2.25;;;;;;;;;;4981321;28;20326;-67
2023/01/08 02:48:39;;;;;;;5.63;2.65;;;;;;;;;;4984077;28;20202;-66
2023/01/08 02:51:26;;;;;;;3.92;2.60;;;;;;;;;;4987299;28;20271;-67
2023/01/08 02:54:01;;;;;;;4.75;2.45;;;;;;;;;;4996631;28;20187;-67
2023/01/08 02:56:31;;;;;;;6.50;2.60;;;;;;;;;;4994020;28;20438;-67
2023/01/08 02:58:58;;;;;;;4.35;2.47;;;;;;;;;;4991924;28;20191;-67
2023/01/08 03:01:26;;;;;;;5.80;2.28;;;;;;;;;;4988323;28;20218;-66
2023/01/08 03:03:57;;;;;;;6.95;2.42;;;;;;;;;;4988789;28;20196;-67
2023/01/08 03:06:24;;;;;;;6.45;2.50;;;;;;;;;;4978041;28;20188;-67
2023/01/08 03:08:51;;;;;;;5.55;2.67;;;;;;;;;;4979961;28;20198;-70
2023/01/08 03:11:20;;;;;;;4.38;2.50;;;;;;;;;;4987599;28;20277;-67
2023/01/08 03:14:12;;;;;;;3.38;2.28;;;;;;;;;;4979895;28;20300;-66
2023/01/08 03:16:50;;;;;;;6.90;2.97;;;;;;;;;;4981339;28;20211;-66
2023/01/08 03:19:22;;;;;;;5.10;2.30;;;;;;;;;;4989055;28;20202;-66
2023/01/08 03:21:50;;;;;;;3.55;2.50;;;;;;;;;;4980019;28;20243;-66
2023/01/08 03:24:19;;;;;;;8.27;2.70;;;;;;;;;;4989080;28;20287;-67
2023/01/08 03:26:46;;;;;;;4.40;2.35;;;;;;;;;;4977527;28;20211;-66
2023/01/08 03:29:15;;;;;;;6.63;2.75;;;;;;;;;;4982537;28;20188;-67
2023/01/08 03:31:43;;;;;;;6.72;2.80;;;;;;;;;;4979650;28;20188;-67
2023/01/08 03:34:10;;;;;;;7.10;2.58;;;;;;;;;;4984222;28;20199;-66
2023/01/08 03:36:39;;;;;;;5.10;2.63;;;;;;;;;;4979840;28;20226;-66
2023/01/08 03:39:23;;;;;;;6.68;2.67;;;;;;;;;;4976991;28;20199;-66
2023/01/08 03:41:52;;;;;;;5.35;3.08;;;;;;;;;;4980966;28;20423;-66
2023/01/08 03:44:17;;;;;;;6.10;2.55;;;;;;;;;;4976873;28;20188;-66
2023/01/08 03:46:53;;;;;;;5.25;2.88;;;;;;;;;;4982164;28;20195;-66
2023/01/08 03:49:20;;;;;;;5.93;2.60;;;;;;;;;;4985099;28;20191;-66
2023/01/08 03:51:46;;;;;;;7.43;2.63;;;;;;;;;;4983297;28;20196;-66
2023/01/08 03:54:14;;;;;;;5.35;2.30;;;;;;;;;;4979849;28;20191;-67
2023/01/08 03:56:40;;;;;;;3.03;2.63;;;;;;;;;;4982743;28;20192;-66
2023/01/08 03:59:05;;;;;;;6.95;2.58;;;;;;;;;;4987324;28;20286;-67
2023/01/08 04:01:30;;;;;;;5.57;2.63;;;;;;;;;;4987053;28;20296;-67
2023/01/08 04:03:56;;;;;;;3.03;2.33;;;;;;;;;;4993185;28;20402;-67
2023/01/08 04:06:22;;;;;;;4.75;2.28;;;;;;;;;;4997674;28;20255;-67
2023/01/08 04:08:47;;;;;;;5.40;2.35;;;;;;;;;;4988258;28;20192;-67
2023/01/08 04:11:13;;;;;;;6.85;2.50;;;;;;;;;;4988819;28;20191;-67
2023/01/08 04:13:38;;;;;;;5.25;1.77;;;;;;;;;;4983026;28;20199;-67
2023/01/08 04:16:04;;;;;;;3.45;1.60;;;;;;;;;;4981015;28;20219;-67
2023/01/08 04:18:30;;;;;;;5.88;1.50;;;;;;;;;;4986079;28;20190;-67
2023/01/08 04:20:55;;;;;;;4.78;1.85;;;;;;;;;;4981162;28;20220;-67
2023/01/08 04:23:21;;;;;;;1.67;1.45;;;;;;;;;;4983655;28;20652;-68
2023/01/08 04:25:46;;;;;;;3.83;1.10;;;;;;;;;;4983917;28;20257;-67
2023/01/08 04:28:12;;;;;;;3.60;0.98;;;;;;;;;;4983397;28;20269;-67
2023/01/08 04:30:37;;;;;;;5.00;1.40;;;;;;;;;;4987825;28;20200;-67
2023/01/08 04:33:02;;;;;;;7.22;1.00;;;;;;;;;;4988193;28;20187;-68
2023/01/08 04:35:28;;;;;;;4.97;0.80;;;;;;;;;;4992008;28;20278;-69
2023/01/08 04:37:53;;;;;;;2.42;0.90;;;;;;;;;;4983944;28;20188;-69
2023/01/08 04:40:18;;;;;;;3.28;0.70;;;;;;;;;;4991123;28;20274;-70
2023/01/08 04:42:44;;;;;;;4.05;0.73;;;;;;;;;;4982850;28;20667;-70
2023/01/08 04:45:09;;;;;;;3.85;1.00;;;;;;;;;;4980830;28;20199;-71
2023/01/08 04:47:35;;;;;;;2.95;0.90;;;;;;;;;;4984650;28;20889;-69
2023/01/08 04:50:00;;;;;;;3.95;0.80;;;;;;;;;;4993164;28;20655;-69
2023/01/08 04:52:28;;;;;;;7.00;1.00;;;;;;;;;;4987910;28;20187;-69
2023/01/08 04:54:53;;;;;;;8.50;0.90;;;;;;;;;;4995330;28;20722;-68
2023/01/08 04:57:18;;;;;;;8.80;0.90;;;;;;;;;;4999329;28;20192;-68
2023/01/08 04:59:44;;;;;;;7.53;0.90;;;;;;;;;;4998657;28;20556;-67
2023/01/08 05:02:09;;;;;;;3.53;0.80;;;;;;;;;;4998227;28;20281;-68
2023/01/08 05:04:35;;;;;;;7.68;1.20;;;;;;;;;;4997980;28;20496;-67
2023/01/08 05:07:00;;;;;;;5.90;0.80;;;;;;;;;;4997119;28;20273;-67
2023/01/08 05:09:25;;;;;;;5.53;1.00;;;;;;;;;;4990854;28;20271;-67
2023/01/08 05:11:51;;;;;;;8.07;1.02;;;;;;;;;;4996324;28;20218;-67
2023/01/08 05:14:16;;;;;;;6.28;1.17;;;;;;;;;;4999631;28;20190;-67
2023/01/08 05:16:41;;;;;;;4.70;1.05;;;;;;;;;;4980746;28;20194;-67
2023/01/08 05:19:07;;;;;;;4.07;1.00;;;;;;;;;;4988038;28;20260;-68
2023/01/08 05:21:32;;;;;;;6.80;0.90;;;;;;;;;;4987547;28;20967;-68
2023/01/08 05:23:58;;;;;;;8.25;0.90;;;;;;;;;;4990648;28;20270;-68
2023/01/08 05:26:23;;;;;;;3.35;0.73;;;;;;;;;;5004130;28;20218;-68
2023/01/08 05:28:49;;;;;;;5.15;0.90;;;;;;;;;;4999764;28;20274;-67
2023/01/08 05:31:14;;;;;;;4.82;1.25;;;;;;;;;;4992993;28;20182;-67
2023/01/08 05:33:40;;;;;;;7.63;1.17;;;;;;;;;;4982345;28;20276;-67
2023/01/08 05:36:08;;;;;;;4.03;1.02;;;;;;;;;;4989295;28;20187;-67
2023/01/08 05:38:33;;;;;;;5.22;1.00;;;;;;;;;;4984181;28;20195;-68
2023/01/08 05:40:59;;;;;;;4.25;1.05;;;;;;;;;;4987033;28;20207;-67
2023/01/08 05:43:25;;;;;;;2.50;0.88;;;;;;;;;;4988486;28;20188;-67
2023/01/08 05:45:50;;;;;;;3.63;1.08;;;;;;;;;;4987832;28;20277;-67
2023/01/08 05:48:16;;;;;;;5.07;1.10;;;;;;;;;;4989969;28;20195;-67
2023/01/08 05:50:42;;;;;;;5.55;1.20;;;;;;;;;;4993673;28;20183;-67
2023/01/08 05:53:08;;;;;;;6.80;1.00;;;;;;;;;;4997802;28;20215;-67
2023/01/08 05:55:33;;;;;;;3.08;0.98;;;;;;;;;;5001640;28;20225;-67
2023/01/08 05:58:03;;;;;;;4.00;0.90;;;;;;;;;;4990239;28;20249;-67
2023/01/08 06:00:30;;;;;;;7.18;1.00;;;;;;;;;;4986541;28;20687;-68
2023/01/08 06:02:55;;;;;;;4.68;1.05;;;;;;;;;;4985457;28;20191;-67
2023/01/08 06:05:20;;;;;;;7.30;1.15;;;;;;;;;;4980489;28;20257;-67
2023/01/08 06:07:46;;;;;;;4.55;1.00;;;;;;;;;;5000099;28;20186;-67
2023/01/08 06:10:11;;;;;;;5.18;1.10;;;;;;;;;;4998539;28;20623;-67
2023/01/08 06:12:36;;;;;;;4.82;1.15;;;;;;;;;;4999467;28;20242;-67
2023/01/08 06:15:03;;;;;;;2.88;0.90;;;;;;;;;;4986265;28;20192;-67
2023/01/08 06:17:28;;;;;;;6.75;0.98;;;;;;;;;;4987182;28;20200;-67
2023/01/08 06:19:54;;;;;;;6.60;1.25;;;;;;;;;;4995423;28;20640;-67
2023/01/08 06:22:19;;;;;;;6.53;1.27;;;;;;;;;;4988821;28;20199;-68
2023/01/08 06:24:45;;;;;;;4.55;0.93;;;;;;;;;;4996299;28;20314;-67
2023/01/08 06:27:10;;;;;;;7.57;1.20;;;;;;;;;;4991723;28;20184;-67
2023/01/08 06:29:35;;;;;;;3.40;1.20;;;;;;;;;;4988404;28;20266;-67
2023/01/08 06:32:01;;;;;;;4.10;0.73;;;;;;;;;;4991172;28;20184;-67
2023/01/08 06:34:26;;;;;;;4.45;1.00;;;;;;;;;;4983677;28;20211;-67
2023/01/08 06:36:51;;;;;;;4.30;1.10;;;;;;;;;;4999156;28;20543;-68
2023/01/08 06:39:17;;;;;;;3.03;0.80;;;;;;;;;;4985806;28;20191;-68
2023/01/08 06:41:43;;;;;;;5.35;1.35;;;;;;;;;;4993741;28;20270;-67
2023/01/08 06:44:08;;;;;;;5.10;1.05;;;;;;;;;;4994580;28;20290;-68
2023/01/08 06:46:38;;;;;;;8.07;1.40;;;;;;;;;;4987632;28;20223;-67
2023/01/08 06:49:07;;;;;;;3.45;1.15;;;;;;;;;;4991711;28;20492;-67
2023/01/08 06:51:32;;;;;;;3.97;1.20;;;;;;;;;;4994805;28;20670;-67
2023/01/08 06:53:58;;;;;;;5.18;1.02;;;;;;;;;;4997809;28;20187;-67
2023/01/08 06:56:23;;;;;;;3.22;0.80;;;;;;;;;;4999499;28;20667;-67
2023/01/08 06:58:48;;;;;;;3.88;1.00;;;;;;;;;;4996438;28;20214;-67
2023/01/08 07:01:15;;;;;;;4.15;0.93;;;;;;;;;;4990804;28;20677;-67
2023/01/08 07:03:41;;;;;;;3.63;0.90;;;;;;;;;;4993605;28;20562;-67
2023/01/08 07:06:11;;;;;;;2.25;0.90;;;;;;;;;;4992115;28;20214;-66
2023/01/08 07:08:37;;;;;;;1.95;0.75;;;;;;;;;;4993667;28;20670;-66
2023/01/08 07:11:03;;;;;;;2.13;1.00;;;;;;;;;;4994028;28;20271;-67
2023/01/08 07:13:28;;;;;;;2.60;0.85;;;;;;;;;;4995492;28;20939;-67
2023/01/08 07:15:54;;;;;;;3.45;0.90;;;;;;;;;;4994897;28;20655;-66
2023/01/08 07:18:20;;;;;;;3.50;0.93;;;;;;;;;;4991270;28;20640;-66
2023/01/08 07:20:47;;;;;;;3.17;0.80;;;;;;;;;;4987826;28;20208;-67
2023/01/08 07:23:13;;;;;;;2.88;1.02;;;;;;;;;;4993912;28;20232;-66
2023/01/08 07:25:39;;;;;;;2.88;0.63;;;;;;;;;;4983227;28;20702;-67
2023/01/08 07:28:04;;;;;;;3.95;0.57;;;;;;;;;;4988536;28;20387;-67
2023/01/08 07:30:30;;;;;;;5.28;0.68;;;;;;;;;;4997683;28;20199;-67
2023/01/08 07:33:01;;;;;;;4.22;1.10;;;;;;;;;;4994326;28;20207;-67
2023/01/08 07:35:27;;;;;;;2.72;0.75;;;;;;;;;;4998146;28;20529;-67
2023/01/08 07:37:52;;;;;;;4.93;0.90;;;;;;;;;;4984891;28;20192;-67
2023/01/08 07:40:18;;;;;;;4.47;1.00;;;;;;;;;;4988702;28;20550;-68
2023/01/08 07:42:43;;;;;;;2.92;0.90;;;;;;;;;;4999210;28;20202;-66
2023/01/08 07:45:09;;;;;;;3.42;1.10;;;;;;;;;;4995815;28;20382;-67
2023/01/08 07:47:34;;;;;;;5.18;1.40;;;;;;;;;;4989512;28;20199;-67
2023/01/08 07:49:59;;;;;;;2.85;1.10;;;;;;;;;;4987426;28;20195;-67
2023/01/08 07:52:25;;;;;;;3.00;1.10;;;;;;;;;;4987757;28;20277;-66
2023/01/08 07:54:50;;;;;;;5.97;1.30;;;;;;;;;;4990894;28;20694;-67
2023/01/08 07:57:16;;;;;;;3.20;1.00;;;;;;;;;;4991603;28;20689;-66
2023/01/08 07:59:41;;;;;;;3.22;1.17;;;;;;;;;;4991922;28;20234;-67
2023/01/08 08:02:09;;;;;;;2.38;0.90;;;;;;;;;;4994439;28;20660;-67
2023/01/08 08:04:35;;;;;;;3.38;1.17;;;;;;;;;;5006495;28;20244;-67
2023/01/08 08:07:00;;;;;;;2.85;1.20;;;;;;;;;;4996995;28;20195;-67
2023/01/08 08:09:25;;;;;;;4.40;1.30;;;;;;;;;;5003463;28;20188;-67
2023/01/08 08:11:51;;;;;;;4.45;1.55;;;;;;;;;;4998960;28;20212;-67
2023/01/08 08:14:16;;;;;;;3.83;1.20;;;;;;;;;;5000280;28;20186;-67
2023/01/08 08:16:41;;;;;;;3.45;1.50;;;;;;;;;;4995828;28;20274;-67
2023/01/08 08:19:07;;;;;;;6.07;1.35;;;;;;;;;;4992192;28;20187;-67
2023/01/08 08:21:32;;;;;;;4.57;1.15;;;;;;;;;;4989812;28;20207;-67
2023/01/08 08:23:58;;;;;;;2.95;1.35;;;;;;;;;;4982873;28;20237;-67
2023/01/08 08:26:23;;;;;;;2.88;1.33;;;;;;;;;;4988987;28;20686;-68
2023/01/08 08:28:49;;;;;;;4.75;1.20;;;;;;;;;;4990283;28;20200;-67
2023/01/08 08:31:14;;;;;;;4.70;1.50;;;;;;;;;;4984504;28;20180;-67
2023/01/08 08:33:40;;;;;;;2.70;1.27;;;;;;;;;;4982559;28;20667;-67
2023/01/08 08:36:06;;;;;;;2.00;1.10;;;;;;;;;;4990799;28;20183;-67
2023/01/08 08:38:32;;;;;;;5.83;1.60;;;;;;;;;;4985342;28;20493;-67
2023/01/08 08:40:57;;;;;;;7.87;1.37;;;;;;;;;;4989233;28;20211;-68
2023/01/08 08:43:22;;;;;;;2.80;1.53;;;;;;;;;;4985459;28;20366;-67
2023/01/08 08:45:48;;;;;;;7.97;1.20;;;;;;;;;;4983432;28;20200;-67
2023/01/08 08:48:15;;;;;;;14.70;3.05;;;;;;;;;;4993337;28;20235;-67
2023/01/08 08:50:40;;;;;;;3.70;1.00;;;;;;;;;;4998271;28;20250;-67
2023/01/08 08:53:06;;;;;;;3.97;1.00;;;;;;;;;;4995249;28;20188;-67
2023/01/08 08:55:32;;;;;;;3.97;1.20;;;;;;;;;;4987622;28;20671;-67
2023/01/08 08:58:11;;;;;;;4.45;0.80;;;;;;;;;;4989868;28;20187;-67
2023/01/08 09:00:41;;;;;;;5.20;1.00;;;;;;;;;;4988789;28;20215;-67
2023/01/08 09:03:11;;;;;;;3.83;1.00;;;;;;;;;;4988899;28;20184;-67
2023/01/08 09:05:36;;;;;;;4.50;1.23;;;;;;;;;;4987066;28;20191;-67
2023/01/08 09:08:02;;;;;;;3.50;1.08;;;;;;;;;;4997880;28;20670;-68
2023/01/08 09:10:27;;;;;;;4.63;1.10;;;;;;;;;;4994891;28;20629;-67
2023/01/08 09:12:53;;;;;;;4.88;1.50;;;;;;;;;;5000375;28;20191;-67
2023/01/08 09:15:19;;;;;;;6.65;1.00;;;;;;;;;;4990332;28;20191;-67
2023/01/08 09:17:44;;;;;;;6.30;1.05;;;;;;;;;;5002945;28;20218;-67
2023/01/08 09:20:11;;;;;;;7.40;1.02;;;;;;;;;;4997357;28;20198;-67
2023/01/08 09:22:36;;;;;;;5.18;1.30;;;;;;;;;;4985521;28;20226;-67
2023/01/08 09:25:01;;;;;;;9.75;1.20;;;;;;;;;;4983808;28;20223;-67
2023/01/08 09:27:27;;;;;;;5.57;1.50;;;;;;;;;;4998150;28;20274;-67
2023/01/08 09:29:52;;;;;;;6.60;1.10;;;;;;;;;;4990110;28;20646;-67
2023/01/08 09:32:17;;;;;;;7.88;1.00;;;;;;;;;;4992614;28;20203;-67
2023/01/08 09:34:43;;;;;;;6.68;1.30;;;;;;;;;;4995207;28;20334;-67
2023/01/08 09:37:08;;;;;;;7.30;1.33;;;;;;;;;;4986565;28;20688;-67
2023/01/08 09:39:35;;;;;;;7.03;1.02;;;;;;;;;;4990762;28;20211;-67
2023/01/08 09:42:03;;;;;;;6.85;2.45;;;;;;;;;;4995848;28;20248;-67
2023/01/08 09:44:36;;;;;;;3.78;0.95;;;;;;;;;;4993156;28;20201;-66
2023/01/08 09:47:02;;;;;;;7.35;1.60;;;;;;;;;;4989242;28;20198;-67
2023/01/08 09:49:42;;;;;;;6.93;1.10;;;;;;;;;;4988181;28;20192;-67
2023/01/08 09:52:13;;;;;;;6.70;1.40;;;;;;;;;;4998093;28;20187;-67
2023/01/08 09:54:39;;;;;;;11.93;1.70;;;;;;;;;;4995496;28;20214;-67
2023/01/08 09:57:05;;;;;;;6.93;1.10;;;;;;;;;;4999462;28;20333;-68
2023/01/08 09:59:31;;;;;;;7.75;1.23;;;;;;;;;;4996808;28;20282;-67
2023/01/08 10:01:56;;;;;;;7.13;1.30;;;;;;;;;;4992476;28;20630;-67
2023/01/08 10:04:25;;;;;;;8.85;1.08;;;;;;;;;;4991733;28;20249;-67
2023/01/08 10:07:10;;;;;;;8.85;1.27;;;;;;;;;;4997624;28;20194;-67
2023/01/08 10:09:36;;;;;;;9.77;1.30;;;;;;;;;;4999293;28;20199;-67
2023/01/08 10:12:04;;;;;;;6.82;1.02;;;;;;;;;;4991689;28;20187;-67
2023/01/08 10:14:36;;;;;;;7.82;1.30;;;;;;;;;;4993305;28;20188;-67
2023/01/08 10:17:24;;;;;;;5.05;1.00;;;;;;;;;;4991509;28;20230;-67
2023/01/08 10:19:49;;;;;;;7.13;1.25;;;;;;;;;;4994175;28;20273;-67
2023/01/08 10:22:18;;;;;;;7.00;1.20;;;;;;;;;;4994915;28;20207;-67
2023/01/08 10:24:44;;;;;;;8.60;1.20;;;;;;;;;;4994693;28;20229;-67
2023/01/08 10:27:21;;;;;;;12.55;1.42;;;;;;;;;;4995150;28;20286;-67
2023/01/08 10:29:49;;;;;;;12.32;1.77;;;;;;;;;;4993940;28;20283;-67
2023/01/08 10:32:17;;;;;;;10.70;1.30;;;;;;;;;;4986098;28;21111;-67
2023/01/08 10:34:50;;;;;;;8.15;1.38;;;;;;;;;;4984980;28;20472;-67
2023/01/08 10:37:32;;;;;;;12.13;1.83;;;;;;;;;;4987155;28;20503;-67
2023/01/08 10:40:07;;;;;;;5.78;1.20;;;;;;;;;;4989258;28;20191;-67
2023/01/08 10:42:34;;;;;;;7.28;1.58;;;;;;;;;;4995026;28;20226;-66
2023/01/08 10:45:03;;;;;;;8.05;1.50;;;;;;;;;;4987951;28;20191;-66
2023/01/08 10:47:32;;;;;;;9.38;1.40;;;;;;;;;;4997419;28;20203;-67
2023/01/08 10:49:59;;;;;;;10.10;1.50;;;;;;;;;;4988504;28;20238;-66
2023/01/08 10:52:35;;;;;;;13.38;1.42;;;;;;;;;;4986907;28;20187;-66
2023/01/08 10:55:16;;;;;;;6.97;1.23;;;;;;;;;;4986414;28;20223;-67
2023/01/08 10:57:51;;;;;;;9.10;1.30;;;;;;;;;;4990157;28;20196;-67
2023/01/08 11:00:28;;;;;;;8.38;1.13;;;;;;;;;;4989577;28;20594;-67
2023/01/08 11:02:59;;;;;;;7.88;1.27;;;;;;;;;;4984610;28;20265;-67
2023/01/08 11:05:31;;;;;;;10.13;1.30;;;;;;;;;;4985797;28;20194;-67
2023/01/08 11:07:58;;;;;;;10.68;1.60;;;;;;;;;;4978179;28;20196;-67
2023/01/08 11:10:25;;;;;;;13.18;1.50;;;;;;;;;;4987218;28;20294;-67
2023/01/08 11:12:56;;;;;;;10.45;2.17;;;;;;;;;;4982339;28;20558;-67
2023/01/08 11:15:27;;;;;;;13.18;1.67;;;;;;;;;;4983513;28;20685;-67
2023/01/08 11:17:53;;;;;;;8.80;1.33;;;;;;;;;;4985336;28;20219;-68
2023/01/08 11:20:23;;;;;;;9.45;1.20;;;;;;;;;;4986441;28;21432;-68
2023/01/08 11:22:49;;;;;;;8.07;1.45;;;;;;;;;;4984689;28;20215;-68
2023/01/08 11:25:23;;;;;;;7.13;1.58;;;;;;;;;;4986986;28;20255;-68
2023/01/08 11:27:51;;;;;;;10.07;1.48;;;;;;;;;;4981115;28;20195;-68
2023/01/08 11:30:23;;;;;;;6.57;1.20;;;;;;;;;;4992447;28;20207;-68
2023/01/08 11:33:08;;;;;;;4.90;1.27;;;;;;;;;;4983547;28;20203;-68
2023/01/08 11:35:39;;;;;;;4.00;1.35;;;;;;;;;;4979955;28;20622;-68
2023/01/08 11:38:07;;;;;;;7.50;1.55;;;;;;;;;;4983633;28;20183;-67
2023/01/08 11:41:23;;;;;;;8.60;1.27;;;;;;;;;;4983059;28;20210;-67
2023/01/08 11:44:18;;;;;;;7.85;1.30;;;;;;;;;;4956156;28;20207;-67
2023/01/08 11:46:46;;;;;;;8.27;1.35;;;;;;;;;;4948921;28;20272;-67
2023/01/08 11:49:21;;;;;;;6.15;1.50;;;;;;;;;;4982856;28;20211;-67
2023/01/08 11:52:01;;;;;;;10.00;1.67;;;;;;;;;;4990452;28;20210;-66
2023/01/08 11:54:54;;;;;;;7.00;1.23;;;;;;;;;;4998699;28;20226;-67
2023/01/08 11:57:38;;;;;;;6.85;1.23;;;;;;;;;;4985854;28;20655;-67
2023/01/08 12:00:28;;;;;;;7.32;1.63;;;;;;;;;;4984434;28;20207;-67
2023/01/08 12:03:07;;;;;;;12.55;2.58;;;;;;;;;;4982136;28;20209;-67
2023/01/08 12:05:54;;;;;;;9.75;2.38;;;;;;;;;;4987588;28;20187;-67
2023/01/08 12:08:48;;;;;;;9.00;2.20;;;;;;;;;;4989526;28;20345;-67
2023/01/08 12:11:29;;;;;;;5.88;1.70;;;;;;;;;;4985493;28;20195;-67
2023/01/08 12:14:15;;;;;;;7.75;1.73;;;;;;;;;;4991770;28;20249;-67
2023/01/08 12:17:16;;;;;;;5.65;1.42;;;;;;;;;;4990458;28;20248;-66
2023/01/08 12:20:14;;;;;;;7.15;1.48;;;;;;;;;;5000036;28;20331;-67
2023/01/08 12:23:05;;;;;;;10.63;1.80;;;;;;;;;;4997615;28;20206;-67
2023/01/08 12:25:59;;;;;;;6.35;1.02;;;;;;;;;;4995714;28;20713;-67
2023/01/08 12:28:57;;;;;;;4.15;1.33;;;;;;;;;;4957555;28;20206;-67
2023/01/08 12:31:35;;;;;;;3.80;1.20;;;;;;;;;;4985708;28;20270;-67
2023/01/08 12:34:35;;;;;;;6.75;1.35;;;;;;;;;;4993266;28;20214;-67
2023/01/08 12:37:14;;;;;;;4.00;1.10;;;;;;;;;;4989495;28;20206;-67
2023/01/08 12:40:06;;;;;;;6.28;1.33;;;;;;;;;;4990706;28;20624;-67
2023/01/08 12:42:34;;;;;;;7.10;0.90;;;;;;;;;;4292358;28;10000846;-66
2023/01/08 12:45:02;;;;;;;5.70;0.95;;;;;;;;;;4983280;28;20230;-66
2023/01/08 12:47:32;;;;;;;4.55;1.05;;;;;;;;;;4989269;28;20195;-66
2023/01/08 12:50:14;;;;;;;8.77;1.00;;;;;;;;;;5002971;28;20187;-66
2023/01/08 12:52:43;;;;;;;4.57;1.20;;;;;;;;;;4990055;28;20322;-67
2023/01/08 12:55:32;;;;;;;5.75;1.13;;;;;;;;;;4990158;28;20214;-67
2023/01/08 12:58:11;;;;;;;4.78;0.90;;;;;;;;;;4994697;28;20217;-66
2023/01/08 13:00:51;;;;;;;5.00;0.93;;;;;;;;;;4991970;28;20210;-66
2023/01/08 13:03:22;;;;;;;5.88;1.00;;;;;;;;;;4992255;28;20186;-67
2023/01/08 13:05:48;;;;;;;7.15;1.08;;;;;;;;;;4981359;28;20237;-67
2023/01/08 13:08:28;;;;;;;1.60;0.50;;;;;;;;;;4993671;28;20579;-67
2023/01/08 13:10:54;;;;;;;2.85;0.80;;;;;;;;;;4986625;28;20569;-67
2023/01/08 13:13:34;;;;;;;5.25;0.98;;;;;;;;;;4982660;28;20764;-66
2023/01/08 13:16:17;;;;;;;3.17;0.95;;;;;;;;;;4987280;28;20277;-67
2023/01/08 13:18:51;;;;;;;3.80;0.60;;;;;;;;;;4966470;28;20678;-67
2023/01/08 13:21:17;;;;;;;2.08;0.60;;;;;;;;;;4984870;28;20676;-66
2023/01/08 13:23:42;;;;;;;3.15;0.60;;;;;;;;;;4982104;28;20210;-67
2023/01/08 13:26:08;;;;;;;3.70;1.05;;;;;;;;;;4984480;28;20236;-67
2023/01/08 13:28:36;;;;;;;1.45;0.73;;;;;;;;;;4987370;28;20183;-66
2023/01/08 13:31:19;;;;;;;3.85;0.90;;;;;;;;;;4988973;28;20627;-66
2023/01/08 13:33:47;;;;;;;2.92;0.80;;;;;;;;;;4995919;28;20527;-66
2023/01/08 13:36:21;;;;;;;4.53;0.90;;;;;;;;;;5000521;28;20505;-66
2023/01/08 13:39:10;;;;;;;2.83;0.65;;;;;;;;;;4989091;28;20191;-66
2023/01/08 13:41:41;;;;;;;5.85;0.88;;;;;;;;;;4985393;28;20227;-66
2023/01/08 13:44:56;;;;;;;2.60;0.70;;;;;;;;;;4980115;28;20245;-67
2023/01/08 13:47:26;;;;;;;3.70;0.65;;;;;;;;;;4939157;28;20201;-66
2023/01/08 13:49:53;;;;;;;3.47;0.80;;;;;;;;;;4944520;28;20203;-66
2023/01/08 13:52:30;;;;;;;3.50;0.77;;;;;;;;;;4969319;28;20282;-66
2023/01/08 13:54:56;;;;;;;2.92;0.60;;;;;;;;;;4987697;28;20731;-66
2023/01/08 13:57:22;;;;;;;1.90;0.80;;;;;;;;;;4985792;28;20191;-67
2023/01/08 13:59:52;;;;;;;2.13;0.70;;;;;;;;;;4998600;28;20243;-67
2023/01/08 14:02:29;;;;;;;1.58;0.60;;;;;;;;;;4986051;28;20235;-67
2023/01/08 14:04:56;;;;;;;3.25;0.70;;;;;;;;;;4993852;28;20609;-67
2023/01/08 14:07:22;;;;;;;3.75;0.95;;;;;;;;;;4994337;28;20271;-67
2023/01/08 14:09:48;;;;;;;3.33;0.70;;;;;;;;;;4987174;28;20245;-67
2023/01/08 14:12:23;;;;;;;1.80;0.55;;;;;;;;;;4997240;28;20187;-67
2023/01/08 14:14:52;;;;;;;3.10;0.73;;;;;;;;;;4994264;28;20187;-67
2023/01/08 14:17:20;;;;;;;1.83;0.73;;;;;;;;;;4984058;28;20205;-67
2023/01/08 14:19:46;;;;;;;1.50;0.50;;;;;;;;;;4995203;28;20199;-68
2023/01/08 14:22:25;;;;;;;2.92;1.00;;;;;;;;;;4991567;28;20524;-68
2023/01/08 14:24:54;;;;;;;4.25;0.98;;;;;;;;;;4991433;28;20244;-67
2023/01/08 14:27:23;;;;;;;1.92;0.70;;;;;;;;;;4987696;28;20187;-67
2023/01/08 14:29:48;;;;;;;1.67;0.88;;;;;;;;;;4990366;28;20204;-67
2023/01/08 14:32:17;;;;;;;3.53;0.80;;;;;;;;;;4991126;28;20198;-68
2023/01/08 14:34:44;;;;;;;3.42;1.10;;;;;;;;;;4991186;28;20186;-68
2023/01/08 14:37:14;;;;;;;3.85;1.30;;;;;;;;;;4995859;28;20198;-67
2023/01/08 14:39:39;;;;;;;5.45;1.00;;;;;;;;;;4994296;28;20567;-67
2023/01/08 14:45:02;;;;;;;3.40;1.00;;;;;;;;;;4985941;28;20291;-68
2023/01/08 14:47:35;;;;;;;5.05;0.90;;;;;;;;;;4990236;28;20213;-67
2023/01/08 14:50:01;;;;;;;2.13;0.95;;;;;;;;;;5001376;28;20204;-67
2023/01/08 14:52:26;;;;;;;2.80;0.77;;;;;;;;;;4983564;28;20237;-67
2023/01/08 14:54:56;;;;;;;3.60;0.73;;;;;;;;;;4996570;28;20269;-67
2023/01/08 14:57:21;;;;;;;6.40;1.05;;;;;;;;;;4999919;28;20242;-67
2023/01/08 14:59:53;;;;;;;5.53;1.00;;;;;;;;;;4991244;28;20567;-67
2023/01/08 15:02:31;;;;;;;5.80;0.95;;;;;;;;;;4993565;28;20697;-67